sensor_id;sensor_type;location;lat;lon;timestamp;pressure;altitude;pressure_sealevel;temperature
68911;BMP180;55953;51.650;-0.522;2024-01-15T00:02:25;100174.80;;;1.70
68911;BMP180;55953;51.650;-0.522;2024-01-15T00:04:53;100175.60;;;1.70
68911;BMP180;55953;51.650;-0.522;2024-01-15T00:07:21;100173.80;;;1.70
68911;BMP180;55953;51.650;-0.522;2024-01-15T00:09:49;100173.40;;;1.68
68911;BMP180;55953;51.650;-0.522;2024-01-15T00:12:17;100166.20;;;1.60
68911;BMP180;55953;51.650;-0.522;2024-01-15T00:14:45;100163.80;;;1.60
68911;BMP180;55953;51.650;-0.522;2024-01-15T00:17:13;100173.40;;;1.60
68911;BMP180;55953;51.650;-0.522;2024-01-15T00:19:41;100179.40;;;1.52
68911;BMP180;55953;51.650;-0.522;2024-01-15T00:22:09;100175.20;;;1.50
68911;BMP180;55953;51.650;-0.522;2024-01-15T00:24:37;100173.80;;;1.50
68911;BMP180;55953;51.650;-0.522;2024-01-15T00:27:05;100168.60;;;1.42
68911;BMP180;55953;51.650;-0.522;2024-01-15T00:29:33;100165.20;;;1.40
68911;BMP180;55953;51.650;-0.522;2024-01-15T00:32:01;100167.60;;;1.38
68911;BMP180;55953;51.650;-0.522;2024-01-15T00:34:29;100162.80;;;1.30
68911;BMP180;55953;51.650;-0.522;2024-01-15T00:36:57;100159.60;;;1.30
68911;BMP180;55953;51.650;-0.522;2024-01-15T00:39:25;100162.80;;;1.30
68911;BMP180;55953;51.650;-0.522;2024-01-15T00:41:53;100160.00;;;1.24
68911;BMP180;55953;51.650;-0.522;2024-01-15T00:44:21;100158.40;;;1.20
68911;BMP180;55953;51.650;-0.522;2024-01-15T00:46:49;100154.60;;;1.20
68911;BMP180;55953;51.650;-0.522;2024-01-15T00:49:17;100148.80;;;1.20
68911;BMP180;55953;51.650;-0.522;2024-01-15T00:51:45;100141.80;;;1.20
68911;BMP180;55953;51.650;-0.522;2024-01-15T00:54:13;100143.00;;;1.20
68911;BMP180;55953;51.650;-0.522;2024-01-15T00:56:41;100137.00;;;1.20
68911;BMP180;55953;51.650;-0.522;2024-01-15T00:59:09;100132.00;;;1.20
68911;BMP180;55953;51.650;-0.522;2024-01-15T01:01:38;100134.00;;;1.20
68911;BMP180;55953;51.650;-0.522;2024-01-15T01:04:06;100134.20;;;1.14
68911;BMP180;55953;51.650;-0.522;2024-01-15T01:06:34;100129.60;;;1.16
68911;BMP180;55953;51.650;-0.522;2024-01-15T01:09:02;100131.20;;;1.10
68911;BMP180;55953;51.650;-0.522;2024-01-15T01:11:30;100125.00;;;1.10
68911;BMP180;55953;51.650;-0.522;2024-01-15T01:13:58;100123.80;;;1.10
68911;BMP180;55953;51.650;-0.522;2024-01-15T01:16:26;100126.20;;;1.00
68911;BMP180;55953;51.650;-0.522;2024-01-15T01:18:54;100127.00;;;1.00
68911;BMP180;55953;51.650;-0.522;2024-01-15T01:21:22;100120.00;;;0.90
68911;BMP180;55953;51.650;-0.522;2024-01-15T01:23:50;100123.40;;;0.90
68911;BMP180;55953;51.650;-0.522;2024-01-15T01:26:18;100122.80;;;0.90
68911;BMP180;55953;51.650;-0.522;2024-01-15T01:28:46;100117.60;;;0.90
68911;BMP180;55953;51.650;-0.522;2024-01-15T01:31:14;100121.00;;;0.90
68911;BMP180;55953;51.650;-0.522;2024-01-15T01:33:44;100124.80;;;0.90
68911;BMP180;55953;51.650;-0.522;2024-01-15T01:36:12;100124.80;;;0.84
68911;BMP180;55953;51.650;-0.522;2024-01-15T01:38:40;100130.40;;;0.86
68911;BMP180;55953;51.650;-0.522;2024-01-15T01:41:08;100134.60;;;0.80
68911;BMP180;55953;51.650;-0.522;2024-01-15T01:43:36;100131.60;;;0.84
68911;BMP180;55953;51.650;-0.522;2024-01-15T01:46:05;100124.80;;;0.80
68911;BMP180;55953;51.650;-0.522;2024-01-15T01:48:33;100126.80;;;0.80
68911;BMP180;55953;51.650;-0.522;2024-01-15T01:51:02;100128.20;;;0.80
68911;BMP180;55953;51.650;-0.522;2024-01-15T01:53:34;100125.80;;;0.86
68911;BMP180;55953;51.650;-0.522;2024-01-15T01:56:04;100125.00;;;0.80
68911;BMP180;55953;51.650;-0.522;2024-01-15T01:58:33;100123.00;;;0.80
68911;BMP180;55953;51.650;-0.522;2024-01-15T02:01:01;100126.00;;;0.80
68911;BMP180;55953;51.650;-0.522;2024-01-15T02:03:30;100117.80;;;0.80
68911;BMP180;55953;51.650;-0.522;2024-01-15T02:06:00;100116.60;;;0.80
68911;BMP180;55953;51.650;-0.522;2024-01-15T02:08:29;100114.40;;;0.80
68911;BMP180;55953;51.650;-0.522;2024-01-15T02:10:56;100118.80;;;0.80
68911;BMP180;55953;51.650;-0.522;2024-01-15T02:13:24;100120.20;;;0.80
68911;BMP180;55953;51.650;-0.522;2024-01-15T02:15:52;100117.20;;;0.80
68911;BMP180;55953;51.650;-0.522;2024-01-15T02:18:20;100113.80;;;0.82
68911;BMP180;55953;51.650;-0.522;2024-01-15T02:20:49;100117.60;;;0.80
68911;BMP180;55953;51.650;-0.522;2024-01-15T02:23:17;100117.60;;;0.80
68911;BMP180;55953;51.650;-0.522;2024-01-15T02:25:46;100122.60;;;0.80
68911;BMP180;55953;51.650;-0.522;2024-01-15T02:28:16;100127.40;;;0.80
68911;BMP180;55953;51.650;-0.522;2024-01-15T02:30:45;100125.00;;;0.80
68911;BMP180;55953;51.650;-0.522;2024-01-15T02:33:14;100125.40;;;0.90
68911;BMP180;55953;51.650;-0.522;2024-01-15T02:35:42;100121.80;;;0.90
68911;BMP180;55953;51.650;-0.522;2024-01-15T02:38:10;100121.40;;;0.90
68911;BMP180;55953;51.650;-0.522;2024-01-15T02:40:38;100116.60;;;0.90
68911;BMP180;55953;51.650;-0.522;2024-01-15T02:43:06;100115.00;;;0.90
68911;BMP180;55953;51.650;-0.522;2024-01-15T02:45:34;100112.20;;;0.90
68911;BMP180;55953;51.650;-0.522;2024-01-15T02:48:02;100112.20;;;1.00
68911;BMP180;55953;51.650;-0.522;2024-01-15T02:50:31;100111.20;;;1.00
68911;BMP180;55953;51.650;-0.522;2024-01-15T02:52:59;100111.80;;;0.98
68911;BMP180;55953;51.650;-0.522;2024-01-15T02:55:26;100105.00;;;0.90
68911;BMP180;55953;51.650;-0.522;2024-01-15T02:57:57;100105.20;;;0.90
68911;BMP180;55953;51.650;-0.522;2024-01-15T03:00:25;100107.80;;;0.90
68911;BMP180;55953;51.650;-0.522;2024-01-15T03:02:54;100106.00;;;0.90
68911;BMP180;55953;51.650;-0.522;2024-01-15T03:05:22;100104.40;;;0.80
68911;BMP180;55953;51.650;-0.522;2024-01-15T03:07:50;100105.40;;;0.76
68911;BMP180;55953;51.650;-0.522;2024-01-15T03:10:18;100101.80;;;0.68
68911;BMP180;55953;51.650;-0.522;2024-01-15T03:12:46;100100.40;;;0.60
68911;BMP180;55953;51.650;-0.522;2024-01-15T03:15:14;100104.20;;;0.60
68911;BMP180;55953;51.650;-0.522;2024-01-15T03:17:42;100100.80;;;0.60
68911;BMP180;55953;51.650;-0.522;2024-01-15T03:20:11;100106.60;;;0.60
68911;BMP180;55953;51.650;-0.522;2024-01-15T03:22:39;100109.80;;;0.60
68911;BMP180;55953;51.650;-0.522;2024-01-15T03:25:07;100114.80;;;0.64
68911;BMP180;55953;51.650;-0.522;2024-01-15T03:27:35;100110.00;;;0.62
68911;BMP180;55953;51.650;-0.522;2024-01-15T03:30:04;100110.80;;;0.60
68911;BMP180;55953;51.650;-0.522;2024-01-15T03:32:32;100114.20;;;0.50
68911;BMP180;55953;51.650;-0.522;2024-01-15T03:35:00;100114.60;;;0.50
68911;BMP180;55953;51.650;-0.522;2024-01-15T03:37:29;100110.80;;;0.42
68911;BMP180;55953;51.650;-0.522;2024-01-15T03:39:56;100115.20;;;0.42
68911;BMP180;55953;51.650;-0.522;2024-01-15T03:42:25;100113.20;;;0.40
68911;BMP180;55953;51.650;-0.522;2024-01-15T03:44:52;100115.40;;;0.38
68911;BMP180;55953;51.650;-0.522;2024-01-15T03:47:20;100111.20;;;0.30
68911;BMP180;55953;51.650;-0.522;2024-01-15T03:49:48;100111.40;;;0.40
68911;BMP180;55953;51.650;-0.522;2024-01-15T03:52:16;100111.20;;;0.38
68911;BMP180;55953;51.650;-0.522;2024-01-15T03:54:44;100103.80;;;0.40
68911;BMP180;55953;51.650;-0.522;2024-01-15T03:57:12;100103.80;;;0.40
68911;BMP180;55953;51.650;-0.522;2024-01-15T03:59:41;100101.60;;;0.40
68911;BMP180;55953;51.650;-0.522;2024-01-15T04:02:09;100099.20;;;0.40
68911;BMP180;55953;51.650;-0.522;2024-01-15T04:04:42;100101.60;;;0.50
68911;BMP180;55953;51.650;-0.522;2024-01-15T04:07:10;100101.20;;;0.50
68911;BMP180;55953;51.650;-0.522;2024-01-15T04:09:38;100092.00;;;0.60
68911;BMP180;55953;51.650;-0.522;2024-01-15T04:12:06;100094.00;;;0.60
68911;BMP180;55953;51.650;-0.522;2024-01-15T04:14:34;100088.80;;;0.70
68911;BMP180;55953;51.650;-0.522;2024-01-15T04:17:02;100088.20;;;0.70
68911;BMP180;55953;51.650;-0.522;2024-01-15T04:19:30;100084.80;;;0.70
68911;BMP180;55953;51.650;-0.522;2024-01-15T04:21:58;100082.60;;;0.70
68911;BMP180;55953;51.650;-0.522;2024-01-15T04:24:26;100078.80;;;0.72
68911;BMP180;55953;51.650;-0.522;2024-01-15T04:26:53;100074.80;;;0.70
68911;BMP180;55953;51.650;-0.522;2024-01-15T04:29:21;100081.00;;;0.70
68911;BMP180;55953;51.650;-0.522;2024-01-15T04:31:49;100080.20;;;0.70
68911;BMP180;55953;51.650;-0.522;2024-01-15T04:34:18;100069.00;;;0.70
68911;BMP180;55953;51.650;-0.522;2024-01-15T04:36:46;100079.80;;;0.70
68911;BMP180;55953;51.650;-0.522;2024-01-15T04:39:14;100080.00;;;0.70
68911;BMP180;55953;51.650;-0.522;2024-01-15T04:41:41;100082.40;;;0.70
68911;BMP180;55953;51.650;-0.522;2024-01-15T04:44:09;100080.80;;;0.70
68911;BMP180;55953;51.650;-0.522;2024-01-15T04:46:37;100082.80;;;0.70
68911;BMP180;55953;51.650;-0.522;2024-01-15T04:49:05;100081.20;;;0.70
68911;BMP180;55953;51.650;-0.522;2024-01-15T04:51:34;100076.60;;;0.74
68911;BMP180;55953;51.650;-0.522;2024-01-15T04:54:02;100075.00;;;0.78
68911;BMP180;55953;51.650;-0.522;2024-01-15T04:56:30;100069.40;;;0.80
68911;BMP180;55953;51.650;-0.522;2024-01-15T04:58:58;100077.20;;;0.80
68911;BMP180;55953;51.650;-0.522;2024-01-15T05:01:33;100081.00;;;0.80
68911;BMP180;55953;51.650;-0.522;2024-01-15T05:04:01;100084.80;;;0.80
68911;BMP180;55953;51.650;-0.522;2024-01-15T05:06:30;100079.80;;;0.80
68911;BMP180;55953;51.650;-0.522;2024-01-15T05:08:57;100078.20;;;0.80
68911;BMP180;55953;51.650;-0.522;2024-01-15T05:11:25;100069.80;;;0.80
68911;BMP180;55953;51.650;-0.522;2024-01-15T05:13:53;100069.40;;;0.80
68911;BMP180;55953;51.650;-0.522;2024-01-15T05:16:21;100067.80;;;0.80
68911;BMP180;55953;51.650;-0.522;2024-01-15T05:18:49;100071.20;;;0.80
68911;BMP180;55953;51.650;-0.522;2024-01-15T05:21:17;100072.40;;;0.80
68911;BMP180;55953;51.650;-0.522;2024-01-15T05:23:45;100080.80;;;0.80
68911;BMP180;55953;51.650;-0.522;2024-01-15T05:26:13;100079.80;;;0.80
68911;BMP180;55953;51.650;-0.522;2024-01-15T05:28:41;100080.60;;;0.80
68911;BMP180;55953;51.650;-0.522;2024-01-15T05:31:10;100080.60;;;0.80
68911;BMP180;55953;51.650;-0.522;2024-01-15T05:33:38;100073.00;;;0.80
68911;BMP180;55953;51.650;-0.522;2024-01-15T05:36:07;100081.80;;;0.90
68911;BMP180;55953;51.650;-0.522;2024-01-15T05:38:35;100075.40;;;0.90
68911;BMP180;55953;51.650;-0.522;2024-01-15T05:41:03;100074.60;;;0.90
68911;BMP180;55953;51.650;-0.522;2024-01-15T05:43:31;100081.00;;;0.98
68911;BMP180;55953;51.650;-0.522;2024-01-15T05:45:59;100072.20;;;1.00
68911;BMP180;55953;51.650;-0.522;2024-01-15T05:48:27;100068.60;;;1.00
68911;BMP180;55953;51.650;-0.522;2024-01-15T05:50:55;100069.80;;;1.00
68911;BMP180;55953;51.650;-0.522;2024-01-15T05:53:23;100081.40;;;1.00
68911;BMP180;55953;51.650;-0.522;2024-01-15T05:55:51;100078.80;;;1.00
68911;BMP180;55953;51.650;-0.522;2024-01-15T05:58:19;100085.80;;;1.00
68911;BMP180;55953;51.650;-0.522;2024-01-15T06:00:46;100079.20;;;0.94
68911;BMP180;55953;51.650;-0.522;2024-01-15T06:03:15;100079.20;;;0.90
68911;BMP180;55953;51.650;-0.522;2024-01-15T06:05:43;100083.60;;;0.90
68911;BMP180;55953;51.650;-0.522;2024-01-15T06:08:11;100084.00;;;0.90
68911;BMP180;55953;51.650;-0.522;2024-01-15T06:10:39;100083.80;;;0.90
68911;BMP180;55953;51.650;-0.522;2024-01-15T06:13:07;100092.80;;;0.90
68911;BMP180;55953;51.650;-0.522;2024-01-15T06:15:35;100092.60;;;0.90
68911;BMP180;55953;51.650;-0.522;2024-01-15T06:18:04;100098.60;;;0.90
68911;BMP180;55953;51.650;-0.522;2024-01-15T06:20:32;100100.60;;;0.86
68911;BMP180;55953;51.650;-0.522;2024-01-15T06:23:00;100104.60;;;0.90
68911;BMP180;55953;51.650;-0.522;2024-01-15T06:25:28;100105.60;;;0.82
68911;BMP180;55953;51.650;-0.522;2024-01-15T06:27:56;100101.40;;;0.80
68911;BMP180;55953;51.650;-0.522;2024-01-15T06:30:24;100102.40;;;0.80
68911;BMP180;55953;51.650;-0.522;2024-01-15T06:32:52;100099.40;;;0.80
68911;BMP180;55953;51.650;-0.522;2024-01-15T06:35:20;100100.20;;;0.80
68911;BMP180;55953;51.650;-0.522;2024-01-15T06:37:50;100092.40;;;0.78
68911;BMP180;55953;51.650;-0.522;2024-01-15T06:40:18;100104.80;;;0.70
68911;BMP180;55953;51.650;-0.522;2024-01-15T06:42:46;100099.20;;;0.70
68911;BMP180;55953;51.650;-0.522;2024-01-15T06:45:14;100106.80;;;0.70
68911;BMP180;55953;51.650;-0.522;2024-01-15T06:47:42;100108.80;;;0.66
68911;BMP180;55953;51.650;-0.522;2024-01-15T06:50:10;100110.00;;;0.60
68911;BMP180;55953;51.650;-0.522;2024-01-15T06:52:38;100115.60;;;0.60
68911;BMP180;55953;51.650;-0.522;2024-01-15T06:55:06;100115.60;;;0.60
68911;BMP180;55953;51.650;-0.522;2024-01-15T06:57:35;100118.20;;;0.60
68911;BMP180;55953;51.650;-0.522;2024-01-15T07:00:03;100115.80;;;0.50
68911;BMP180;55953;51.650;-0.522;2024-01-15T07:02:35;100117.00;;;0.50
68911;BMP180;55953;51.650;-0.522;2024-01-15T07:05:04;100116.60;;;0.50
68911;BMP180;55953;51.650;-0.522;2024-01-15T07:07:33;100108.80;;;0.50
68911;BMP180;55953;51.650;-0.522;2024-01-15T07:10:00;100099.60;;;0.40
68911;BMP180;55953;51.650;-0.522;2024-01-15T07:12:29;100103.40;;;0.40
68911;BMP180;55953;51.650;-0.522;2024-01-15T07:14:57;100102.80;;;0.30
68911;BMP180;55953;51.650;-0.522;2024-01-15T07:17:25;100107.80;;;0.30
68911;BMP180;55953;51.650;-0.522;2024-01-15T07:19:53;100113.20;;;0.30
68911;BMP180;55953;51.650;-0.522;2024-01-15T07:22:21;100111.40;;;0.30
68911;BMP180;55953;51.650;-0.522;2024-01-15T07:24:49;100115.80;;;0.24
68911;BMP180;55953;51.650;-0.522;2024-01-15T07:27:17;100119.00;;;0.20
68911;BMP180;55953;51.650;-0.522;2024-01-15T07:29:45;100123.60;;;0.20
68911;BMP180;55953;51.650;-0.522;2024-01-15T07:32:13;100121.60;;;0.20
68911;BMP180;55953;51.650;-0.522;2024-01-15T07:34:41;100123.80;;;0.20
68911;BMP180;55953;51.650;-0.522;2024-01-15T07:37:09;100122.60;;;0.18
68911;BMP180;55953;51.650;-0.522;2024-01-15T07:39:37;100122.80;;;0.10
68911;BMP180;55953;51.650;-0.522;2024-01-15T07:42:06;100126.40;;;0.10
68911;BMP180;55953;51.650;-0.522;2024-01-15T07:44:34;100126.40;;;0.10
68911;BMP180;55953;51.650;-0.522;2024-01-15T07:47:02;100133.40;;;0.10
68911;BMP180;55953;51.650;-0.522;2024-01-15T07:49:29;100128.40;;;0.10
68911;BMP180;55953;51.650;-0.522;2024-01-15T07:51:57;100121.40;;;0.10
68911;BMP180;55953;51.650;-0.522;2024-01-15T07:54:25;100125.00;;;0.10
68911;BMP180;55953;51.650;-0.522;2024-01-15T07:57:00;100125.60;;;0.06
68911;BMP180;55953;51.650;-0.522;2024-01-15T07:59:29;100128.80;;;0.10
68911;BMP180;55953;51.650;-0.522;2024-01-15T08:01:59;100129.80;;;0.10
68911;BMP180;55953;51.650;-0.522;2024-01-15T08:04:27;100126.80;;;0.00
68911;BMP180;55953;51.650;-0.522;2024-01-15T08:06:56;100120.00;;;0.00
68911;BMP180;55953;51.650;-0.522;2024-01-15T08:09:24;100123.60;;;0.10
68911;BMP180;55953;51.650;-0.522;2024-01-15T08:11:52;100127.60;;;0.02
68911;BMP180;55953;51.650;-0.522;2024-01-15T08:14:20;100127.00;;;0.02
68911;BMP180;55953;51.650;-0.522;2024-01-15T08:16:48;100129.40;;;0.10
68911;BMP180;55953;51.650;-0.522;2024-01-15T08:19:16;100132.00;;;0.10
68911;BMP180;55953;51.650;-0.522;2024-01-15T08:21:44;100145.60;;;0.10
68911;BMP180;55953;51.650;-0.522;2024-01-15T08:24:14;100139.80;;;0.10
68911;BMP180;55953;51.650;-0.522;2024-01-15T08:26:43;100144.00;;;0.10
68911;BMP180;55953;51.650;-0.522;2024-01-15T08:29:10;100141.00;;;0.18
68911;BMP180;55953;51.650;-0.522;2024-01-15T08:31:38;100145.20;;;0.20
68911;BMP180;55953;51.650;-0.522;2024-01-15T08:34:07;100151.00;;;0.20
68911;BMP180;55953;51.650;-0.522;2024-01-15T08:36:35;100154.40;;;0.20
68911;BMP180;55953;51.650;-0.522;2024-01-15T08:39:04;100161.80;;;0.20
68911;BMP180;55953;51.650;-0.522;2024-01-15T08:41:33;100173.60;;;0.20
68911;BMP180;55953;51.650;-0.522;2024-01-15T08:44:01;100177.00;;;0.20
68911;BMP180;55953;51.650;-0.522;2024-01-15T08:46:30;100186.80;;;0.20
68911;BMP180;55953;51.650;-0.522;2024-01-15T08:48:58;100186.40;;;0.20
68911;BMP180;55953;51.650;-0.522;2024-01-15T08:51:26;100191.80;;;0.30
68911;BMP180;55953;51.650;-0.522;2024-01-15T08:53:56;100194.20;;;0.30
68911;BMP180;55953;51.650;-0.522;2024-01-15T08:56:24;100194.40;;;0.30
68911;BMP180;55953;51.650;-0.522;2024-01-15T08:58:52;100187.60;;;0.40
68911;BMP180;55953;51.650;-0.522;2024-01-15T09:01:20;100203.20;;;0.44
68911;BMP180;55953;51.650;-0.522;2024-01-15T09:03:48;100205.60;;;0.50
68911;BMP180;55953;51.650;-0.522;2024-01-15T09:06:16;100210.80;;;0.60
68911;BMP180;55953;51.650;-0.522;2024-01-15T09:08:44;100208.80;;;0.64
68911;BMP180;55953;51.650;-0.522;2024-01-15T09:11:12;100207.60;;;0.70
68911;BMP180;55953;51.650;-0.522;2024-01-15T09:13:40;100202.80;;;0.78
68911;BMP180;55953;51.650;-0.522;2024-01-15T09:16:08;100205.60;;;0.80
68911;BMP180;55953;51.650;-0.522;2024-01-15T09:18:36;100216.60;;;0.90
68911;BMP180;55953;51.650;-0.522;2024-01-15T09:21:04;100226.80;;;0.90
68911;BMP180;55953;51.650;-0.522;2024-01-15T09:23:32;100232.40;;;1.00
68911;BMP180;55953;51.650;-0.522;2024-01-15T09:26:00;100227.40;;;1.06
68911;BMP180;55953;51.650;-0.522;2024-01-15T09:28:28;100223.40;;;1.10
68911;BMP180;55953;51.650;-0.522;2024-01-15T09:30:56;100222.00;;;1.10
68911;BMP180;55953;51.650;-0.522;2024-01-15T09:33:24;100217.20;;;1.14
68911;BMP180;55953;51.650;-0.522;2024-01-15T09:35:52;100223.40;;;1.20
68911;BMP180;55953;51.650;-0.522;2024-01-15T09:38:20;100226.40;;;1.20
68911;BMP180;55953;51.650;-0.522;2024-01-15T09:40:48;100226.00;;;1.20
68911;BMP180;55953;51.650;-0.522;2024-01-15T09:43:17;100223.60;;;1.30
68911;BMP180;55953;51.650;-0.522;2024-01-15T09:45:45;100224.60;;;1.30
68911;BMP180;55953;51.650;-0.522;2024-01-15T09:48:14;100228.00;;;1.30
68911;BMP180;55953;51.650;-0.522;2024-01-15T09:50:42;100226.60;;;1.30
68911;BMP180;55953;51.650;-0.522;2024-01-15T09:53:11;100242.40;;;1.40
68911;BMP180;55953;51.650;-0.522;2024-01-15T09:55:41;100247.40;;;1.40
68911;BMP180;55953;51.650;-0.522;2024-01-15T09:58:10;100249.40;;;1.40
68911;BMP180;55953;51.650;-0.522;2024-01-15T10:00:39;100241.60;;;1.40
68911;BMP180;55953;51.650;-0.522;2024-01-15T10:03:09;100249.80;;;1.40
68911;BMP180;55953;51.650;-0.522;2024-01-15T10:05:39;100241.60;;;1.44
68911;BMP180;55953;51.650;-0.522;2024-01-15T10:08:07;100248.00;;;1.48
68911;BMP180;55953;51.650;-0.522;2024-01-15T10:10:37;100236.60;;;1.50
68911;BMP180;55953;51.650;-0.522;2024-01-15T10:13:06;100245.20;;;1.50
68911;BMP180;55953;51.650;-0.522;2024-01-15T10:15:35;100247.20;;;1.50
68911;BMP180;55953;51.650;-0.522;2024-01-15T10:18:06;100250.00;;;1.50
68911;BMP180;55953;51.650;-0.522;2024-01-15T10:20:34;100247.20;;;1.56
68911;BMP180;55953;51.650;-0.522;2024-01-15T10:23:03;100248.80;;;1.60
68911;BMP180;55953;51.650;-0.522;2024-01-15T10:25:31;100263.60;;;1.60
68911;BMP180;55953;51.650;-0.522;2024-01-15T10:28:04;100275.00;;;1.70
68911;BMP180;55953;51.650;-0.522;2024-01-15T10:30:32;100268.00;;;1.70
68911;BMP180;55953;51.650;-0.522;2024-01-15T10:33:03;100273.00;;;1.70
68911;BMP180;55953;51.650;-0.522;2024-01-15T10:35:34;100272.80;;;1.74
68911;BMP180;55953;51.650;-0.522;2024-01-15T10:38:02;100264.40;;;1.80
68911;BMP180;55953;51.650;-0.522;2024-01-15T10:40:31;100267.20;;;1.80
68911;BMP180;55953;51.650;-0.522;2024-01-15T10:42:59;100267.00;;;1.90
68911;BMP180;55953;51.650;-0.522;2024-01-15T10:45:27;100267.40;;;1.90
68911;BMP180;55953;51.650;-0.522;2024-01-15T10:47:56;100266.80;;;1.90
68911;BMP180;55953;51.650;-0.522;2024-01-15T10:50:29;100265.60;;;1.90
68911;BMP180;55953;51.650;-0.522;2024-01-15T10:52:57;100256.00;;;2.00
68911;BMP180;55953;51.650;-0.522;2024-01-15T10:55:26;100258.00;;;2.00
68911;BMP180;55953;51.650;-0.522;2024-01-15T10:57:55;100259.60;;;2.00
68911;BMP180;55953;51.650;-0.522;2024-01-15T11:00:24;100265.00;;;2.00
68911;BMP180;55953;51.650;-0.522;2024-01-15T11:02:54;100249.00;;;2.00
68911;BMP180;55953;51.650;-0.522;2024-01-15T11:05:25;100252.80;;;2.00
68911;BMP180;55953;51.650;-0.522;2024-01-15T11:07:56;100263.20;;;2.10
68911;BMP180;55953;51.650;-0.522;2024-01-15T11:13:20;100267.80;;;2.10
68911;BMP180;55953;51.650;-0.522;2024-01-15T11:16:14;100268.80;;;2.10
68911;BMP180;55953;51.650;-0.522;2024-01-15T11:19:02;100274.60;;;2.10
68911;BMP180;55953;51.650;-0.522;2024-01-15T11:21:30;100283.00;;;2.10
68911;BMP180;55953;51.650;-0.522;2024-01-15T11:24:00;100289.00;;;2.10
68911;BMP180;55953;51.650;-0.522;2024-01-15T11:26:46;100281.80;;;2.10
68911;BMP180;55953;51.650;-0.522;2024-01-15T11:38:15;100280.60;;;2.20
68911;BMP180;55953;51.650;-0.522;2024-01-15T11:40:22;100273.60;;;2.20
68911;BMP180;55953;51.650;-0.522;2024-01-15T11:42:50;100271.80;;;2.28
68911;BMP180;55953;51.650;-0.522;2024-01-15T11:45:21;100277.60;;;2.30
68911;BMP180;55953;51.650;-0.522;2024-01-15T11:48:15;100279.60;;;2.30
68911;BMP180;55953;51.650;-0.522;2024-01-15T11:50:48;100284.20;;;2.30
68911;BMP180;55953;51.650;-0.522;2024-01-15T11:53:39;100288.60;;;2.38
68911;BMP180;55953;51.650;-0.522;2024-01-15T11:56:23;100287.40;;;2.40
68911;BMP180;55953;51.650;-0.522;2024-01-15T11:58:51;100303.60;;;2.44
68911;BMP180;55953;51.650;-0.522;2024-01-15T12:01:19;100299.60;;;2.50
68911;BMP180;55953;51.650;-0.522;2024-01-15T12:03:48;100300.40;;;2.50
68911;BMP180;55953;51.650;-0.522;2024-01-15T12:06:16;100305.00;;;2.50
68911;BMP180;55953;51.650;-0.522;2024-01-15T12:08:44;100303.80;;;2.50
68911;BMP180;55953;51.650;-0.522;2024-01-15T12:11:15;100303.00;;;2.50
68911;BMP180;55953;51.650;-0.522;2024-01-15T12:13:46;100295.40;;;2.50
68911;BMP180;55953;51.650;-0.522;2024-01-15T12:16:14;100298.00;;;2.60
68911;BMP180;55953;51.650;-0.522;2024-01-15T12:18:42;100297.00;;;2.60
68911;BMP180;55953;51.650;-0.522;2024-01-15T12:21:10;100291.40;;;2.64
68911;BMP180;55953;51.650;-0.522;2024-01-15T12:23:39;100290.20;;;2.70
68911;BMP180;55953;51.650;-0.522;2024-01-15T12:26:07;100290.60;;;2.70
68911;BMP180;55953;51.650;-0.522;2024-01-15T12:28:36;100300.80;;;2.70
68911;BMP180;55953;51.650;-0.522;2024-01-15T12:31:05;100299.60;;;2.70
68911;BMP180;55953;51.650;-0.522;2024-01-15T12:33:33;100299.60;;;2.70
68911;BMP180;55953;51.650;-0.522;2024-01-15T12:36:01;100298.20;;;2.80
68911;BMP180;55953;51.650;-0.522;2024-01-15T12:38:29;100297.80;;;2.70
68911;BMP180;55953;51.650;-0.522;2024-01-15T12:40:57;100303.40;;;2.70
68911;BMP180;55953;51.650;-0.522;2024-01-15T12:43:25;100308.20;;;2.70
68911;BMP180;55953;51.650;-0.522;2024-01-15T12:45:54;100301.60;;;2.76
68911;BMP180;55953;51.650;-0.522;2024-01-15T12:48:22;100302.00;;;2.74
68911;BMP180;55953;51.650;-0.522;2024-01-15T12:50:52;100305.60;;;2.80
68911;BMP180;55953;51.650;-0.522;2024-01-15T12:53:20;100299.00;;;2.80
68911;BMP180;55953;51.650;-0.522;2024-01-15T12:55:48;100289.60;;;2.80
68911;BMP180;55953;51.650;-0.522;2024-01-15T12:58:15;100292.00;;;2.70
68911;BMP180;55953;51.650;-0.522;2024-01-15T13:00:47;100298.80;;;2.70
68911;BMP180;55953;51.650;-0.522;2024-01-15T13:03:15;100291.20;;;2.70
68911;BMP180;55953;51.650;-0.522;2024-01-15T13:05:44;100292.00;;;2.70
68911;BMP180;55953;51.650;-0.522;2024-01-15T13:08:13;100288.20;;;2.74
68911;BMP180;55953;51.650;-0.522;2024-01-15T13:10:41;100290.60;;;2.80
68911;BMP180;55953;51.650;-0.522;2024-01-15T13:13:10;100293.80;;;2.80
68911;BMP180;55953;51.650;-0.522;2024-01-15T13:15:37;100291.80;;;2.80
68911;BMP180;55953;51.650;-0.522;2024-01-15T13:18:06;100292.60;;;2.84
68911;BMP180;55953;51.650;-0.522;2024-01-15T13:20:34;100292.00;;;2.90
68911;BMP180;55953;51.650;-0.522;2024-01-15T13:23:03;100294.60;;;2.92
68911;BMP180;55953;51.650;-0.522;2024-01-15T13:25:31;100292.40;;;3.00
68911;BMP180;55953;51.650;-0.522;2024-01-15T13:28:01;100291.00;;;2.94
68911;BMP180;55953;51.650;-0.522;2024-01-15T13:30:30;100289.60;;;3.00
68911;BMP180;55953;51.650;-0.522;2024-01-15T13:32:59;100287.60;;;2.98
68911;BMP180;55953;51.650;-0.522;2024-01-15T13:35:32;100285.80;;;3.00
68911;BMP180;55953;51.650;-0.522;2024-01-15T13:38:00;100286.20;;;3.00
68911;BMP180;55953;51.650;-0.522;2024-01-15T13:40:28;100285.00;;;2.90
68911;BMP180;55953;51.650;-0.522;2024-01-15T13:42:56;100285.60;;;2.90
68911;BMP180;55953;51.650;-0.522;2024-01-15T13:45:24;100288.00;;;2.90
68911;BMP180;55953;51.650;-0.522;2024-01-15T13:47:52;100285.40;;;2.90
68911;BMP180;55953;51.650;-0.522;2024-01-15T13:50:20;100287.40;;;2.82
68911;BMP180;55953;51.650;-0.522;2024-01-15T13:52:51;100286.40;;;2.80
68911;BMP180;55953;51.650;-0.522;2024-01-15T13:55:18;100289.60;;;2.80
68911;BMP180;55953;51.650;-0.522;2024-01-15T13:57:47;100294.40;;;2.80
68911;BMP180;55953;51.650;-0.522;2024-01-15T14:00:16;100293.80;;;2.80
68911;BMP180;55953;51.650;-0.522;2024-01-15T14:02:47;100287.60;;;2.80
68911;BMP180;55953;51.650;-0.522;2024-01-15T14:05:15;100287.60;;;2.80
68911;BMP180;55953;51.650;-0.522;2024-01-15T14:07:44;100282.60;;;2.80
68911;BMP180;55953;51.650;-0.522;2024-01-15T14:10:11;100275.60;;;2.70
68911;BMP180;55953;51.650;-0.522;2024-01-15T14:12:40;100266.40;;;2.70
68911;BMP180;55953;51.650;-0.522;2024-01-15T14:15:08;100271.40;;;2.70
68911;BMP180;55953;51.650;-0.522;2024-01-15T14:17:37;100269.40;;;2.76